Map

Track Data

SID SEASON NUMBER BASIN SUBBASIN NAME ISO_TIME NATURE LAT LON WMO_WIND WMO_PRES WMO_AGENCY TRACK_TYPE DIST2LAND LANDFALL IFLAG USA_AGENCY USA_ATCF_ID USA_LAT USA_LON USA_RECORD USA_STATUS USA_WIND USA_PRES USA_SSHS USA_R34_NE USA_R34_SE USA_R34_SW USA_R34_NW USA_R50_NE USA_R50_SE USA_R50_SW USA_R50_NW USA_R64_NE USA_R64_SE USA_R64_SW USA_R64_NW USA_POCI USA_ROCI USA_RMW USA_EYE TOKYO_LAT TOKYO_LON TOKYO_GRADE TOKYO_WIND TOKYO_PRES TOKYO_R50_DIR TOKYO_R50_LONG TOKYO_R50_SHORT TOKYO_R30_DIR TOKYO_R30_LONG TOKYO_R30_SHORT TOKYO_LAND CMA_LAT CMA_LON CMA_CAT CMA_WIND CMA_PRES HKO_LAT HKO_LON HKO_CAT HKO_WIND HKO_PRES NEWDELHI_LAT NEWDELHI_LON NEWDELHI_GRADE NEWDELHI_WIND NEWDELHI_PRES NEWDELHI_CI NEWDELHI_DP NEWDELHI_POCI REUNION_LAT REUNION_LON REUNION_TYPE REUNION_WIND REUNION_PRES REUNION_TNUM REUNION_CI REUNION_RMW REUNION_R34_NE REUNION_R34_SE REUNION_R34_SW REUNION_R34_NW REUNION_R50_NE REUNION_R50_SE REUNION_R50_SW REUNION_R50_NW REUNION_R64_NE REUNION_R64_SE REUNION_R64_SW REUNION_R64_NW BOM_LAT BOM_LON BOM_TYPE BOM_WIND BOM_PRES BOM_TNUM BOM_CI BOM_RMW BOM_R34_NE BOM_R34_SE BOM_R34_SW BOM_R34_NW BOM_R50_NE BOM_R50_SE BOM_R50_SW BOM_R50_NW BOM_R64_NE BOM_R64_SE BOM_R64_SW BOM_R64_NW BOM_ROCI BOM_POCI BOM_EYE BOM_POS_METHOD BOM_PRES_METHOD NADI_LAT NADI_LON NADI_CAT NADI_WIND NADI_PRES WELLINGTON_LAT WELLINGTON_LON WELLINGTON_WIND WELLINGTON_PRES DS824_LAT DS824_LON DS824_STAGE DS824_WIND DS824_PRES TD9636_LAT TD9636_LON TD9636_STAGE TD9636_WIND TD9636_PRES TD9635_LAT TD9635_LON TD9635_WIND TD9635_PRES TD9635_ROCI NEUMANN_LAT NEUMANN_LON NEUMANN_CLASS NEUMANN_WIND NEUMANN_PRES MLC_LAT MLC_LON MLC_CLASS MLC_WIND MLC_PRES USA_GUST BOM_GUST BOM_GUST_PER REUNION_GUST REUNION_GUST_PER USA_SEAHGT USA_SEARAD_NE USA_SEARAD_SE USA_SEARAD_SW USA_SEARAD_NW STORM_SPEED STORM_DIR
1965129N14085 1965 39 NI BB NOT_NAMED 1965-05-09 06:00:00 TS 13.6000 85.4000 main 472 464 O________O____ jtwc_io IO011965 13.6000 85.4000 -1 13.6000 85.4000 TC 2 16
1965129N14085 1965 39 NI BB NOT_NAMED 1965-05-09 09:00:00 TS 13.7200 85.4300 main 464 457 P________P____ IO011965 13.7200 85.4300 -1 13.7200 85.4300 TC 3 17
1965129N14085 1965 39 NI BB NOT_NAMED 1965-05-09 12:00:00 TS 13.9000 85.5000 main 457 444 O________O____ jtwc_io IO011965 13.9000 85.5000 -1 13.9000 85.5000 TC 25 5 22
1965129N14085 1965 39 NI BB NOT_NAMED 1965-05-09 15:00:00 TS 14.1911 85.6311 main 444 433 P________PO___ IO011965 14.1900 85.6350 -1 14.1900 85.6350 TC 25 14.2000 85.6000 1 8 22
1965129N14085 1965 39 NI BB NOT_NAMED 1965-05-09 18:00:00 TS 14.6238 85.7976 main 435 401 O________OP___ jtwc_io IO011965 14.6000 85.8000 -1 14.6000 85.8000 TC 25 14.7189 85.7882 1 10 18
1965129N14085 1965 39 NI BB NOT_NAMED 1965-05-09 21:00:00 TS 15.1691 85.9558 main 401 360 P________PP___ IO011965 15.1500 85.9500 -1 15.1500 85.9500 TC 30 15.2202 85.9715 1 11 16
1965129N14085 1965 39 NI BB NOT_NAMED 1965-05-10 00:00:00 TS 15.6955 86.1147 main 360 339 O________OP___ jtwc_io IO011965 15.7000 86.1000 -1 15.7000 86.1000 TC 35 15.6864 86.1441 1 10 18
1965129N14085 1965 39 NI BB NOT_NAMED 1965-05-10 03:00:00 TS 16.0917 86.2667 main 339 323 P________PO___ IO011965 16.0875 86.2501 -1 16.0875 86.2501 TC 35 16.1000 86.3000 2 8 22
1965129N14085 1965 39 NI BB NOT_NAMED 1965-05-10 06:00:00 TS 16.4167 86.4119 main 323 307 O________OP___ jtwc_io IO011965 16.4000 86.4000 -1 16.4000 86.4000 TC 35 16.4502 86.4358 2 7 24
1965129N14085 1965 39 NI BB NOT_NAMED 1965-05-10 09:00:00 TS 16.7224 86.5577 main 315 299 P________PP___ IO011965 16.7075 86.5575 -1 16.7075 86.5575 TC 35 16.7523 86.5581 2 7 24
1965129N14085 1965 39 NI BB NOT_NAMED 1965-05-10 12:00:00 TS 17.0094 86.6921 main 299 285 O________OP___ jtwc_io IO011965 17.0000 86.7000 -1 17.0000 86.7000 TC 35 17.0283 86.6763 2 6 22
1965129N14085 1965 39 NI BB NOT_NAMED 1965-05-10 15:00:00 TS 17.3000 86.8001 main 286 270 P________PO___ IO011965 17.3000 86.8001 -1 17.3000 86.8001 TC 35 17.3000 86.8000 3 6 19
1965129N14085 1965 39 NI BB NOT_NAMED 1965-05-10 18:00:00 TS 17.5755 86.8973 main 270 253 O________OP___ jtwc_io IO011965 17.6000 86.9000 -1 17.6000 86.9000 TC 35 17.5265 86.8919 3 6 20
1965129N14085 1965 39 NI BB NOT_NAMED 1965-05-10 21:00:00 TS 17.8447 87.0129 main 253 224 P________PP___ IO011965 17.8849 87.0202 -1 17.8849 87.0202 TC 35 17.7644 86.9982 3 6 25
1965129N14085 1965 39 NI BB NOT_NAMED 1965-05-11 00:00:00 TS 18.1567 87.1851 main 218 197 O________OP___ jtwc_io IO011965 18.2000 87.2000 -1 18.2000 87.2000 TC 35 18.0700 87.1553 3 8 31
1965129N14085 1965 39 NI BB NOT_NAMED 1965-05-11 03:00:00 TS 18.5116 87.4322 main 197 176 P________PO___ IO011965 18.5174 87.4482 -1 18.5174 87.4482 TC 35 18.5000 87.4000 3 11 33
1965129N14085 1965 39 NI BB NOT_NAMED 1965-05-11 06:00:00 TS 19.0458 87.7920 main 184 160 O________OP___ jtwc_io IO011965 19.0000 87.8000 -1 19.0000 87.8000 TC 35 19.1374 87.7759 3 15 31
1965129N14085 1965 39 NI BB NOT_NAMED 1965-05-11 09:00:00 TS 19.8303 88.2607 main 168 101 P________PP___ IO011965 19.7976 88.2695 -1 19.7976 88.2695 TC 50 19.8958 88.2429 3 19 29
1965129N14085 1965 39 NI BB NOT_NAMED 1965-05-11 12:00:00 TS 20.7021 88.7879 main 101 24 O________OP___ jtwc_io IO011965 20.7000 88.8000 -1 20.7000 88.8000 TC 65 20.7062 88.7638 3 19 30
1965129N14085 1965 39 NI BB NOT_NAMED 1965-05-11 15:00:00 TS 21.4865 89.3003 main 23 0 P________PO___ IO011965 21.4798 89.3005 -1 21.4798 89.3005 TC 50 21.5000 89.3000 4 18 32
1965129N14085 1965 39 NI BB NOT_NAMED 1965-05-11 18:00:00 TS 22.2097 89.8078 main 0 0 O________OP___ jtwc_io IO011965 22.2000 89.8000 -1 22.2000 89.8000 TC 35 22.2242 89.8194 4 17 34
1965129N14085 1965 39 NI BB NOT_NAMED 1965-05-11 21:00:00 TS 22.8738 90.3085 main 0 0 P________PP___ IO011965 22.8653 90.2991 -1 22.8653 90.2991 TC 30 22.8851 90.3211 4 16 35
1965129N14085 1965 39 NI BB NOT_NAMED 1965-05-12 00:00:00 TS 23.5018 90.8061 main 0 0 O________OP___ jtwc_io IO011965 23.5000 90.8000 -1 23.5000 90.8000 TC 25 23.5035 90.8122 4 15 37
1965129N14085 1965 39 NI BB NOT_NAMED 1965-05-12 03:00:00 NR 24.1000 91.3000 main 0 __________O___ IO011965 -1 TC 24.1000 91.3000 1 15 37

About IBTrACS Database

This database is a web-friendly format of International Best Track Archive for Climate Stewardship (IBTrACS), a global best track data archive curated by NOAA dating back to 1842.

Updated: 2021-11-26